Time;durP1;ratioP1;P1;durP2;ratioP2;P2;SDS_P1;SDS_P2;PMS_P1;PMS_P2;Temp;Humidity;BMP_temperature;BMP_pressure;BME280_temperature;BME280_humidity;BME280_pressure;Samples;Min_cycle;Max_cycle;Signal;HPM_P1;HPM_P2
2023/03/22 00:02:06;;;;;;;;;54.60;43.40;;;;;13.69;64.53;98717.28;6278213;27;96487;-57
2023/03/22 00:05:09;;;;;;;;;58.00;44.00;;;;;13.65;64.60;98726.97;6197921;28;96271;-57
2023/03/22 00:08:13;;;;;;;;;60.40;45.40;;;;;13.67;64.75;98724.84;6206340;28;97063;-57
2023/03/22 00:11:17;;;;;;;;;58.40;45.40;;;;;13.61;64.75;98715.81;6203385;28;96406;-58
2023/03/22 00:14:20;;;;;;;;;57.50;44.00;;;;;13.55;64.71;98719.50;6210501;27;96805;-57
2023/03/22 00:17:25;;;;;;;;;55.25;43.75;;;;;13.40;65.02;98701.09;6209989;27;96858;-57
2023/03/22 00:20:29;;;;;;;;;52.60;43.00;;;;;13.43;64.71;98702.50;6209864;28;96375;-58
2023/03/22 00:23:32;;;;;;;;;55.40;42.60;;;;;13.40;64.81;98702.97;6209343;28;96785;-58
2023/03/22 00:26:35;;;;;;;;;55.50;43.75;;;;;13.39;64.53;98710.28;6209365;28;96359;-59
2023/03/22 00:29:39;;;;;;;;;58.00;44.25;;;;;13.38;64.42;98699.72;6244332;27;96916;-57
2023/03/22 00:32:43;;;;;;;;;54.25;43.00;;;;;13.32;64.51;98697.97;6185422;28;96366;-57
2023/03/22 00:35:49;;;;;;;;;57.40;44.20;;;;;13.26;64.26;98694.34;6269170;27;96487;-58
2023/03/22 00:38:53;;;;;;;;;55.80;43.60;;;;;13.20;63.77;98691.78;6187782;28;96332;-57
2023/03/22 00:41:56;;;;;;;;;57.00;43.50;;;;;13.13;63.86;98683.00;6277467;27;96337;-57
2023/03/22 00:45:00;;;;;;;;;53.00;41.00;;;;;13.05;63.59;98691.50;6196096;28;96240;-57
2023/03/22 00:48:04;;;;;;;;;55.50;43.50;;;;;12.89;63.96;98679.56;6209787;28;97039;-58
2023/03/22 00:51:09;;;;;;;;;54.60;43.00;;;;;12.96;64.27;98697.28;6209974;27;96770;-58
2023/03/22 00:54:13;;;;;;;;;55.60;43.00;;;;;12.95;64.10;98698.31;6256012;27;96631;-57
2023/03/22 00:57:18;;;;;;;;;55.40;44.40;;;;;12.84;64.24;98695.69;6267400;27;96376;-57
2023/03/22 01:00:22;;;;;;;;;55.80;44.00;;;;;12.80;63.93;98691.81;6183513;28;96464;-58
2023/03/22 01:03:26;;;;;;;;;56.20;44.00;;;;;12.71;63.76;98688.66;6267834;27;97040;-57
2023/03/22 01:06:30;;;;;;;;;55.80;44.00;;;;;12.62;64.22;98691.97;6271285;27;96396;-58
2023/03/22 01:09:33;;;;;;;;;56.20;43.40;;;;;12.55;64.21;98690.25;6251160;27;96461;-58
2023/03/22 01:12:37;;;;;;;;;55.00;43.20;;;;;12.47;64.57;98676.25;6251852;27;96384;-57
2023/03/22 01:15:41;;;;;;;;;57.50;44.00;;;;;12.44;64.20;98679.44;6271593;27;96399;-60
2023/03/22 01:18:45;;;;;;;;;56.60;44.00;;;;;12.41;64.06;98672.63;6250245;27;96569;-57
2023/03/22 01:21:49;;;;;;;;;56.80;43.00;;;;;12.36;64.25;98661.72;6268533;27;96913;-57
2023/03/22 01:24:52;;;;;;;;;57.40;44.00;;;;;12.37;63.95;98665.22;6260249;27;96362;-57
2023/03/22 01:27:56;;;;;;;;;59.50;43.75;;;;;12.38;63.87;98661.47;6209525;28;97176;-57
2023/03/22 01:31:01;;;;;;;;;54.75;44.00;;;;;12.37;64.29;98651.72;6264139;27;96242;-58
2023/03/22 01:34:06;;;;;;;;;55.00;44.00;;;;;12.39;64.32;98663.13;6266497;27;96346;-57
2023/03/22 01:37:09;;;;;;;;;57.40;44.00;;;;;12.41;64.73;98652.91;6251457;27;96268;-57
2023/03/22 01:40:16;;;;;;;;;57.00;45.20;;;;;12.41;64.58;98644.78;6250950;27;96294;-57
2023/03/22 01:43:21;;;;;;;;;52.60;42.60;;;;;12.39;64.11;98639.63;6268769;27;96627;-57
2023/03/22 01:46:24;;;;;;;;;54.00;43.00;;;;;12.36;64.22;98632.00;6252286;27;96384;-57
2023/03/22 01:49:32;;;;;;;;;55.60;43.60;;;;;12.32;63.62;98638.09;6267607;27;96278;-57
2023/03/22 01:52:37;;;;;;;;;57.00;44.00;;;;;12.32;64.24;98632.69;6268718;27;96314;-58
2023/03/22 01:55:47;;;;;;;;;55.80;43.20;;;;;12.31;63.83;98621.06;6232967;27;98950;-57
2023/03/22 01:58:57;;;;;;;;;57.80;44.40;;;;;12.26;64.43;98615.56;6251261;27;96514;-57
2023/03/22 02:02:17;;;;;;;;;54.60;43.40;;;;;12.23;64.39;98620.59;6251701;27;96796;-57
2023/03/22 02:05:29;;;;;;;;;59.00;44.00;;;;;12.14;63.07;98612.06;6266766;27;96411;-57
2023/03/22 02:08:34;;;;;;;;;53.00;43.00;;;;;12.05;63.35;98614.31;6266122;27;96395;-58
2023/03/22 02:11:50;;;;;;;;;52.60;41.80;;;;;11.95;64.46;98600.59;6251595;27;96234;-57
2023/03/22 02:15:11;;;;;;;;;52.60;42.00;;;;;11.91;65.19;98585.09;6250981;27;96306;-58
2023/03/22 02:18:59;;;;;;;;;52.00;43.00;;;;;11.98;65.38;98600.09;6197480;28;96238;-57
2023/03/22 02:22:24;;;;;;;;;54.20;41.60;;;;;11.98;64.91;98602.81;6196358;28;96363;-57
2023/03/22 02:25:53;;;;;;;;;54.00;42.00;;;;;11.93;64.20;98594.59;6246151;27;97005;-57
2023/03/22 02:29:06;;;;;;;;;49.00;40.00;;;;;11.86;63.61;98583.09;6187674;28;96272;-58
2023/03/22 02:32:53;;;;;;;;;56.75;44.00;;;;;11.81;64.15;98591.09;6272195;27;96506;-56
2023/03/22 02:36:18;;;;;;;;;54.80;43.80;;;;;11.74;63.53;98574.19;6208445;28;96243;-58
2023/03/22 02:39:34;;;;;;;;;51.40;42.40;;;;;11.72;63.72;98578.97;6260080;27;96773;-56
2023/03/22 02:42:49;;;;;;;;;51.20;41.80;;;;;11.63;63.70;98581.19;6267822;27;96233;-56
2023/03/22 02:45:58;;;;;;;;;51.80;41.00;;;;;11.61;63.88;98586.03;6249477;27;98299;-56
2023/03/22 02:49:09;;;;;;;;;48.50;40.25;;;;;11.57;63.56;98584.84;6183864;28;96362;-55
2023/03/22 02:52:17;;;;;;;;;52.00;41.00;;;;;11.56;63.98;98587.78;6250312;27;96079;-55
2023/03/22 02:55:29;;;;;;;;;50.40;41.00;;;;;11.50;63.89;98570.66;6261337;27;96279;-56
2023/03/22 02:58:38;;;;;;;;;48.80;38.80;;;;;11.42;63.31;98564.78;6199375;28;96245;-56
2023/03/22 03:01:46;;;;;;;;;50.00;41.00;;;;;11.48;62.94;98580.06;6183104;28;96247;-56
2023/03/22 03:04:52;;;;;;;;;49.00;39.50;;;;;11.44;63.19;98585.06;6250209;27;96026;-55
2023/03/22 03:08:00;;;;;;;;;51.00;40.00;;;;;11.35;62.96;98583.78;6198613;27;96864;-56
2023/03/22 03:11:09;;;;;;;;;52.00;40.60;;;;;11.31;63.33;98579.91;6318830;27;97047;-56
2023/03/22 03:14:24;;;;;;;;;49.00;38.20;;;;;11.26;63.71;98583.31;6272664;27;96083;-55
2023/03/22 03:17:40;;;;;;;;;49.00;39.00;;;;;11.27;64.45;98581.44;6266353;27;96270;-56
2023/03/22 03:20:56;;;;;;;;;47.80;39.20;;;;;11.35;65.11;98586.47;6187015;28;96444;-57
2023/03/22 03:24:13;;;;;;;;;49.25;38.25;;;;;11.30;63.00;98587.19;6254542;27;96284;-57
2023/03/22 03:27:27;;;;;;;;;45.00;38.00;;;;;11.26;62.71;98596.81;6278583;27;96246;-56
2023/03/22 03:30:34;;;;;;;;;50.40;39.40;;;;;11.20;62.36;98597.72;6271946;27;96215;-56
2023/03/22 03:33:45;;;;;;;;;49.80;40.40;;;;;11.02;62.25;98595.13;6267550;27;96341;-56
2023/03/22 03:36:55;;;;;;;;;46.75;38.50;;;;;10.93;61.61;98595.69;6195443;27;96359;-56
2023/03/22 03:40:05;;;;;;;;;48.25;39.25;;;;;10.84;62.66;98587.94;6259937;27;96279;-57
2023/03/22 03:43:10;;;;;;;;;46.00;38.00;;;;;10.76;62.34;98590.13;6211270;28;96442;-56
2023/03/22 03:46:15;;;;;;;;;47.00;38.00;;;;;10.68;61.84;98587.75;6262667;27;96301;-56
2023/03/22 03:49:20;;;;;;;;;48.60;39.00;;;;;10.57;61.73;98589.38;6278533;27;96928;-55
2023/03/22 03:52:25;;;;;;;;;41.67;35.00;;;;;10.56;62.24;98589.59;6211153;28;96297;-56
2023/03/22 03:55:29;;;;;;;;;47.00;38.50;;;;;10.54;62.29;98581.75;6202731;28;96241;-56
2023/03/22 03:58:34;;;;;;;;;43.60;36.00;;;;;10.59;63.41;98589.16;6262242;27;96780;-56
2023/03/22 04:01:38;;;;;;;;;36.40;32.00;;;;;10.55;65.08;98590.66;6196996;27;96608;-56
2023/03/22 04:04:48;;;;;;;;;36.00;31.00;;;;;10.63;65.37;98593.03;6289903;27;97508;-57
2023/03/22 04:07:54;;;;;;;;;37.60;32.00;;;;;10.75;64.93;98593.91;6278422;27;96225;-55
2023/03/22 04:10:57;;;;;;;;;38.00;33.00;;;;;10.82;64.38;98605.38;6210872;28;96382;-56
2023/03/22 04:14:02;;;;;;;;;37.20;32.80;;;;;10.85;64.07;98605.75;6261589;27;96639;-56
2023/03/22 04:17:05;;;;;;;;;40.00;34.00;;;;;10.79;62.97;98609.38;6251525;27;98157;-56
2023/03/22 04:20:11;;;;;;;;;48.00;39.00;;;;;10.68;61.37;98612.03;6185446;28;96214;-56
2023/03/22 04:23:15;;;;;;;;;47.00;38.00;;;;;10.42;61.15;98605.13;6254172;27;96399;-56
2023/03/22 04:26:21;;;;;;;;;48.00;39.00;;;;;10.23;61.06;98595.41;6273071;27;96399;-56
2023/03/22 04:29:49;;;;;;;;;50.80;39.80;;;;;9.88;61.18;98587.94;6256499;27;96598;-56
2023/03/22 04:33:23;;;;;;;;;45.00;36.00;;;;;9.88;61.89;98609.47;6231256;27;96242;-62
2023/03/22 04:36:53;;;;;;;;;45.80;36.20;;;;;9.76;62.38;98618.53;6192039;27;97068;-63
2023/03/22 04:40:06;;;;;;;;;50.00;39.00;;;;;9.58;62.32;98617.44;6274128;27;96512;-63
2023/03/22 04:43:21;;;;;;;;;47.50;38.25;;;;;9.56;62.88;98622.22;6268268;27;96393;-62
2023/03/22 04:46:36;;;;;;;;;48.00;37.80;;;;;9.53;63.23;98621.81;6270449;27;96746;-62
2023/03/22 04:49:41;;;;;;;;;45.60;39.00;;;;;9.52;62.96;98620.19;6261272;27;96770;-62
2023/03/22 04:52:46;;;;;;;;;48.50;40.00;;;;;9.50;62.33;98616.91;6276024;27;96327;-63
2023/03/22 04:55:50;;;;;;;;;45.20;38.40;;;;;9.48;62.60;98621.69;6271886;27;97152;-63
2023/03/22 04:58:54;;;;;;;;;42.80;34.00;;;;;9.45;62.40;98619.44;6276768;27;96287;-63
2023/03/22 05:01:59;;;;;;;;;47.00;38.00;;;;;9.46;62.35;98634.53;6262379;27;96758;-62
2023/03/22 05:05:08;;;;;;;;;44.80;36.60;;;;;9.50;62.46;98627.66;6261561;27;96608;-63
2023/03/22 05:08:15;;;;;;;;;47.60;38.40;;;;;9.54;62.24;98629.69;6194709;28;96849;-63
2023/03/22 05:11:23;;;;;;;;;44.20;37.00;;;;;9.57;62.07;98634.66;6246445;27;98430;-63
2023/03/22 05:14:41;;;;;;;;;43.50;36.00;;;;;9.57;61.96;98623.06;6194213;28;97352;-63
2023/03/22 05:17:47;;;;;;;;;46.00;38.00;;;;;9.58;61.72;98630.88;6264131;27;96441;-63
2023/03/22 05:20:52;;;;;;;;;47.75;38.50;;;;;9.61;61.72;98635.03;6233034;27;96880;-63
2023/03/22 05:23:59;;;;;;;;;44.20;36.00;;;;;9.68;61.60;98640.31;6260201;27;96860;-62
2023/03/22 05:27:03;;;;;;;;;45.00;36.00;;;;;9.91;61.25;98641.34;6273748;27;97000;-63
2023/03/22 05:30:09;;;;;;;;;44.80;36.80;;;;;10.11;60.89;98638.44;6271307;27;96261;-62
2023/03/22 05:33:23;;;;;;;;;46.75;38.00;;;;;10.22;60.49;98640.38;6258633;27;96512;-63
2023/03/22 05:36:30;;;;;;;;;49.00;38.40;;;;;10.32;60.52;98629.91;6271618;27;96427;-62
2023/03/22 05:39:53;;;;;;;;;48.60;38.80;;;;;10.34;60.62;98613.53;6201022;27;96987;-62
2023/03/22 05:43:05;;;;;;;;;45.40;38.00;;;;;10.61;60.41;98633.69;6264026;27;97202;-63
2023/03/22 05:46:12;;;;;;;;;43.80;36.00;;;;;10.75;60.43;98637.84;6265063;27;96590;-62
2023/03/22 05:49:36;;;;;;;;;48.20;39.20;;;;;10.74;60.60;98605.72;6211312;27;97369;-62
2023/03/22 05:52:41;;;;;;;;;46.50;36.00;;;;;11.04;60.44;98629.97;6255348;27;96457;-62
2023/03/22 05:55:59;;;;;;;;;43.67;36.00;;;;;11.13;60.30;98625.88;6272032;27;96662;-62
2023/03/22 05:59:05;;;;;;;;;46.50;38.00;;;;;11.28;60.67;98626.28;6276094;27;96497;-62
2023/03/22 06:02:09;;;;;;;;;45.00;38.00;;;;;11.39;61.28;98632.72;6268280;27;97459;-62
2023/03/22 06:05:16;;;;;;;;;47.80;38.80;;;;;11.58;61.68;98628.88;6194378;28;97362;-62
2023/03/22 06:08:20;;;;;;;;;46.40;38.00;;;;;11.82;60.80;98635.13;6260850;27;96660;-62
2023/03/22 06:11:25;;;;;;;;;41.75;35.50;;;;;12.01;60.75;98632.06;6256957;27;96691;-62
2023/03/22 06:14:29;;;;;;;;;43.40;36.00;;;;;12.21;60.80;98631.69;6262498;27;96533;-62
2023/03/22 06:17:44;;;;;;;;;47.00;38.00;;;;;12.44;60.96;98647.00;6262512;27;96959;-62
2023/03/22 06:20:53;;;;;;;;;42.00;35.75;;;;;12.72;61.41;98648.91;6245240;27;96657;-62
2023/03/22 06:24:00;;;;;;;;;45.00;36.00;;;;;12.97;61.12;98646.69;6264470;27;96360;-62
2023/03/22 06:27:03;;;;;;;;;45.40;37.00;;;;;13.22;60.20;98647.16;6271478;27;96823;-64
2023/03/22 06:30:08;;;;;;;;;40.00;34.20;;;;;13.47;59.70;98645.97;6260945;27;97482;-62
2023/03/22 06:33:25;;;;;;;;;43.75;36.00;;;;;13.73;59.18;98645.31;6258998;27;97600;-62
2023/03/22 06:36:36;;;;;;;;;39.60;33.60;;;;;13.87;57.33;98646.59;6267627;27;97307;-57
2023/03/22 06:39:43;;;;;;;;;44.00;35.20;;;;;14.04;56.97;98652.78;6256584;27;98567;-56
2023/03/22 06:42:47;;;;;;;;;46.80;38.00;;;;;14.20;56.96;98654.66;6275413;27;97112;-55
2023/03/22 06:45:52;;;;;;;;;43.60;36.00;;;;;14.11;55.91;98620.09;6272966;27;96477;-56
2023/03/22 06:49:01;;;;;;;;;46.60;38.40;;;;;14.20;55.57;98640.28;6248116;27;97055;-58
2023/03/22 06:52:06;;;;;;;;;40.33;35.00;;;;;14.21;55.47;98647.34;6250917;27;96462;-57
2023/03/22 06:55:10;;;;;;;;;47.40;37.00;;;;;14.20;55.89;98640.28;6258991;27;96336;-56
2023/03/22 06:58:13;;;;;;;;;42.00;36.00;;;;;14.21;56.01;98634.59;6253733;27;98370;-58
2023/03/22 07:01:17;;;;;;;;;43.00;35.50;;;;;14.23;56.44;98631.63;6186687;28;96263;-57
2023/03/22 07:04:20;;;;;;;;;46.60;36.40;;;;;14.25;56.64;98637.63;6256034;27;96943;-55
2023/03/22 07:07:26;;;;;;;;;48.00;36.00;;;;;14.31;56.97;98650.19;6245201;27;98657;-57
2023/03/22 07:10:30;;;;;;;;;43.00;35.00;;;;;14.33;56.83;98638.00;6257650;27;96710;-57
2023/03/22 07:13:34;;;;;;;;;43.60;35.00;;;;;14.33;56.84;98642.59;6192352;28;96407;-57
2023/03/22 07:16:43;;;;;;;;;41.40;35.00;;;;;14.41;57.18;98644.94;6254208;27;96217;-55
2023/03/22 07:19:47;;;;;;;;;40.40;35.40;;;;;14.48;56.82;98648.25;6254560;27;96583;-56
2023/03/22 07:22:52;;;;;;;;;42.00;33.00;;;;;14.58;56.40;98640.25;6273507;27;96512;-56
2023/03/22 07:25:59;;;;;;;;;44.00;35.00;;;;;14.66;56.21;98634.34;6235985;27;98741;-56
2023/03/22 07:29:06;;;;;;;;;45.00;36.00;;;;;14.75;56.28;98637.47;6254706;27;96243;-56
2023/03/22 07:32:10;;;;;;;;;43.80;35.00;;;;;14.81;56.35;98644.56;6186669;28;97037;-55
2023/03/22 07:35:38;;;;;;;;;41.80;35.20;;;;;14.91;55.62;98646.56;6256198;27;97654;-56
2023/03/22 07:38:43;;;;;;;;;45.00;35.00;;;;;15.02;55.53;98642.88;6252053;27;97296;-56
2023/03/22 07:41:52;;;;;;;;;41.20;35.20;;;;;15.13;55.20;98637.31;6278827;27;97042;-55
2023/03/22 07:44:58;;;;;;;;;43.60;35.60;;;;;15.33;55.16;98641.28;6210030;28;96475;-56
2023/03/22 07:48:02;;;;;;;;;37.60;33.00;;;;;15.53;53.88;98630.63;6211184;28;96302;-57
2023/03/22 07:51:22;;;;;;;;;45.00;36.00;;;;;15.83;53.29;98636.25;6278498;27;96344;-56
2023/03/22 07:54:28;;;;;;;;;43.00;35.00;;;;;16.50;51.72;98634.75;6279089;27;97485;-56
2023/03/22 07:57:38;;;;;;;;;45.00;36.00;;;;;17.43;48.90;98635.53;6278635;27;97457;-56
2023/03/22 08:00:42;;;;;;;;;43.00;35.00;;;;;17.77;48.13;98631.19;6278189;27;96497;-56
2023/03/22 08:04:18;;;;;;;;;43.40;35.00;;;;;17.78;46.70;98630.09;6207539;27;96364;-56
2023/03/22 08:07:31;;;;;;;;;41.80;34.80;;;;;18.34;46.68;98630.78;6253888;27;96796;-56
2023/03/22 08:10:36;;;;;;;;;48.00;38.00;;;;;18.51;46.14;98625.81;6255312;27;96516;-60
2023/03/22 08:13:40;;;;;;;;;42.80;34.20;;;;;18.80;46.36;98631.44;6264474;27;96371;-57
2023/03/22 08:16:48;;;;;;;;;39.00;32.80;;;;;19.00;45.97;98611.38;6257393;27;97019;-56
2023/03/22 08:19:53;;;;;;;;;35.80;31.20;;;;;19.31;45.72;98625.63;6265508;27;96920;-57
2023/03/22 08:23:01;;;;;;;;;37.20;32.00;;;;;19.44;44.44;98625.84;6262423;27;97032;-57
2023/03/22 08:26:48;;;;;;;;;36.50;32.00;;;;;19.99;43.55;98622.91;6206625;28;96716;-57
2023/03/22 08:30:16;;;;;;;;;38.00;33.00;;;;;20.91;42.46;98613.34;6207130;27;96672;-56
2023/03/22 08:33:22;;;;;;;;;33.00;30.00;;;;;21.69;40.29;98609.94;6266789;27;96455;-57
2023/03/22 08:36:27;;;;;;;;;36.00;32.00;;;;;22.38;39.07;98616.38;6254299;27;97857;-56
2023/03/22 08:39:38;;;;;;;;;33.25;30.00;;;;;22.69;37.70;98611.88;6252961;27;96378;-57
2023/03/22 08:43:09;;;;;;;;;32.00;30.00;;;;;22.88;38.25;98603.50;6199202;27;97344;-57
2023/03/22 08:46:12;;;;;;;;;36.60;32.00;;;;;22.56;38.09;98615.44;6186589;28;96572;-57
2023/03/22 08:49:16;;;;;;;;;40.75;32.00;;;;;22.27;38.47;98623.19;6252643;27;96263;-57
2023/03/22 08:52:30;;;;;;;;;36.00;31.50;;;;;22.22;39.30;98618.59;6254512;27;96451;-57
2023/03/22 08:55:44;;;;;;;;;34.75;30.00;;;;;22.39;39.12;98618.78;6278533;27;96450;-58
2023/03/22 08:58:49;;;;;;;;;36.80;33.00;;;;;22.79;38.76;98616.38;6210107;28;96790;-59
2023/03/22 09:02:09;;;;;;;;;35.33;30.00;;;;;23.64;37.67;98618.25;6259532;27;97169;-59
2023/03/22 09:05:13;;;;;;;;;30.50;26.50;;;;;23.64;36.73;98615.50;6235800;27;96662;-59
2023/03/22 09:08:17;;;;;;;;;36.00;32.00;;;;;23.51;37.14;98608.94;6251219;27;96915;-59
2023/03/22 09:11:27;;;;;;;;;35.50;30.00;;;;;23.22;37.02;98600.25;6260998;27;96358;-59
2023/03/22 09:14:32;;;;;;;;;38.60;33.00;;;;;22.89;37.38;98607.91;6267452;27;96946;-59
2023/03/22 09:17:36;;;;;;;;;32.60;30.00;;;;;22.62;38.17;98607.91;6243490;27;97191;-60
2023/03/22 09:20:39;;;;;;;;;33.00;30.00;;;;;22.31;38.84;98605.78;6210537;27;98138;-60
2023/03/22 09:23:46;;;;;;;;;33.50;30.00;;;;;22.02;39.51;98602.50;6274790;27;96506;-60
2023/03/22 09:26:52;;;;;;;;;31.00;28.60;;;;;21.69;40.16;98595.41;6265866;27;97027;-59
2023/03/22 09:29:57;;;;;;;;;30.00;29.00;;;;;21.29;40.35;98589.47;6249625;27;96408;-59
2023/03/22 09:33:01;;;;;;;;;31.60;28.60;;;;;21.04;41.18;98585.19;6250078;27;96518;-59
2023/03/22 09:36:06;;;;;;;;;32.60;29.00;;;;;20.68;41.07;98576.63;6184699;28;96968;-59
2023/03/22 09:39:09;;;;;;;;;33.40;30.20;;;;;20.33;42.27;98573.56;6253978;27;96433;-59
2023/03/22 09:42:26;;;;;;;;;31.00;28.40;;;;;20.14;42.99;98571.53;6276303;27;96369;-59
2023/03/22 09:45:36;;;;;;;;;33.00;30.00;;;;;20.02;43.24;98567.59;6274109;27;98514;-59
2023/03/22 09:48:45;;;;;;;;;30.60;28.00;;;;;19.96;43.66;98566.84;6209309;28;96289;-59
2023/03/22 09:51:52;;;;;;;;;34.40;30.00;;;;;20.06;43.32;98560.44;6276729;27;96385;-59
2023/03/22 09:54:55;;;;;;;;;33.40;29.40;;;;;20.34;43.13;98567.78;6258201;27;96621;-59
2023/03/22 09:58:06;;;;;;;;;29.50;26.50;;;;;21.22;41.84;98569.03;6184331;28;96313;-59
2023/03/22 10:01:20;;;;;;;;;34.40;30.00;;;;;22.38;39.73;98561.44;6184285;28;96655;-59
2023/03/22 10:04:48;;;;;;;;;31.20;26.00;;;;;23.47;37.46;98560.34;6183961;28;96356;-59
2023/03/22 10:08:09;;;;;;;;;28.20;24.20;;;;;23.89;35.94;98559.81;6250572;27;97284;-59
2023/03/22 10:11:24;;;;;;;;;25.00;21.00;;;;;24.10;35.22;98547.09;6232205;27;98593;-59
2023/03/22 10:14:32;;;;;;;;;27.75;25.75;;;;;24.28;35.62;98549.94;6183242;28;96299;-59
2023/03/22 10:17:42;;;;;;;;;25.80;23.20;;;;;24.17;34.73;98552.16;6268746;27;96374;-59
2023/03/22 10:20:52;;;;;;;;;25.60;24.00;;;;;23.84;34.66;98554.44;6189218;28;96380;-59
2023/03/22 10:24:00;;;;;;;;;21.60;19.00;;;;;23.71;35.08;98550.63;6252414;27;96324;-59
2023/03/22 10:27:04;;;;;;;;;25.80;23.40;;;;;23.51;35.59;98547.59;6208553;28;96330;-59
2023/03/22 10:30:18;;;;;;;;;27.00;22.50;;;;;23.41;35.30;98540.38;6198510;28;96297;-59
2023/03/22 10:33:31;;;;;;;;;24.00;21.67;;;;;23.32;35.91;98534.00;6194760;28;96407;-59
2023/03/22 10:36:39;;;;;;;;;22.00;20.40;;;;;23.27;36.13;98534.13;6212099;28;97000;-61
2023/03/22 10:39:48;;;;;;;;;28.00;23.00;;;;;23.23;36.76;98536.69;6314371;27;97344;-59
2023/03/22 10:42:55;;;;;;;;;27.00;25.20;;;;;23.25;36.95;98523.47;6225353;27;96393;-60
2023/03/22 10:46:02;;;;;;;;;25.00;23.00;;;;;23.27;36.78;98521.19;6208328;27;97697;-59
2023/03/22 10:49:13;;;;;;;;;24.00;22.00;;;;;23.40;36.78;98527.75;6264434;27;96689;-60
2023/03/22 10:52:33;;;;;;;;;23.25;21.00;;;;;23.40;35.69;98527.75;6187045;28;96227;-59
2023/03/22 10:55:40;;;;;;;;;23.00;22.00;;;;;23.47;36.52;98519.06;6206185;28;96598;-59
2023/03/22 10:58:44;;;;;;;;;19.25;16.75;;;;;23.57;36.15;98522.38;6211206;28;96864;-59
2023/03/22 11:01:51;;;;;;;;;21.00;20.00;;;;;23.68;35.97;98515.47;6277600;27;99123;-59
2023/03/22 11:04:57;;;;;;;;;19.00;17.50;;;;;23.85;34.85;98511.97;6279905;27;96498;-59
2023/03/22 11:08:02;;;;;;;;;17.00;16.00;;;;;24.02;34.22;98503.81;6262244;27;96671;-59
2023/03/22 11:11:07;;;;;;;;;16.00;16.00;;;;;24.15;33.10;98500.13;6206962;28;97489;-59
2023/03/22 11:14:15;;;;;;;;;16.00;15.00;;;;;24.50;33.22;98500.22;6279281;27;96561;-59
2023/03/22 11:17:24;;;;;;;;;17.60;16.00;;;;;25.05;32.34;98491.34;6211498;28;96347;-59
2023/03/22 11:20:29;;;;;;;;;15.00;12.25;;;;;25.83;31.00;98498.34;6211574;28;96431;-59
2023/03/22 11:23:34;;;;;;;;;18.00;16.00;;;;;26.53;30.13;98485.81;6212166;28;96735;-59
2023/03/22 11:26:38;;;;;;;;;16.80;16.20;;;;;26.82;29.23;98490.47;6277750;27;96622;-59
2023/03/22 11:29:46;;;;;;;;;13.60;11.60;;;;;26.84;28.72;98482.63;6204212;28;96352;-59
2023/03/22 11:32:59;;;;;;;;;13.60;12.60;;;;;26.81;28.46;98491.59;6275297;27;96487;-59
2023/03/22 11:36:15;;;;;;;;;10.00;9.00;;;;;26.49;27.95;98482.06;6211388;28;96205;-59
2023/03/22 11:39:20;;;;;;;;;11.00;11.00;;;;;26.16;28.40;98479.97;6278183;27;96965;-59
2023/03/22 11:42:23;;;;;;;;;11.67;10.00;;;;;25.97;29.72;98478.78;6210240;28;96609;-59
2023/03/22 11:45:29;;;;;;;;;13.20;12.20;;;;;25.74;29.34;98476.28;6209858;28;96424;-60
2023/03/22 11:48:34;;;;;;;;;13.00;12.75;;;;;25.72;29.28;98472.22;6211346;28;96916;-60
2023/03/22 11:51:42;;;;;;;;;11.40;10.40;;;;;25.72;29.32;98480.50;6269233;27;96074;-59
2023/03/22 11:54:47;;;;;;;;;12.50;12.00;;;;;25.78;29.57;98471.72;6186131;28;96285;-59
2023/03/22 11:57:55;;;;;;;;;11.50;10.25;;;;;25.82;28.96;98467.16;6186698;28;96353;-60
2023/03/22 12:01:02;;;;;;;;;15.25;13.00;;;;;25.75;28.73;98466.06;6251693;27;98520;-59
2023/03/22 12:04:11;;;;;;;;;13.00;11.00;;;;;25.64;29.13;98462.84;6186398;28;96318;-60
2023/03/22 12:07:20;;;;;;;;;10.00;9.60;;;;;25.54;29.66;98459.59;6187537;28;96440;-60
2023/03/22 12:10:29;;;;;;;;;11.80;11.20;;;;;25.72;29.31;98459.22;6195772;28;96436;-60
2023/03/22 12:13:43;;;;;;;;;12.40;11.40;;;;;25.98;29.75;98452.78;6209002;27;96639;-60
2023/03/22 12:16:50;;;;;;;;;12.25;11.50;;;;;26.26;29.24;98454.75;6197505;28;96287;-60
2023/03/22 12:20:05;;;;;;;;;12.00;11.00;;;;;26.42;29.05;98451.41;6207870;28;96530;-59
2023/03/22 12:23:15;;;;;;;;;12.60;10.00;;;;;26.63;28.41;98441.97;6210592;27;96327;-59
2023/03/22 12:26:23;;;;;;;;;11.00;10.60;;;;;26.80;27.75;98440.22;6208994;28;96444;-60
2023/03/22 12:29:28;;;;;;;;;11.00;10.00;;;;;26.98;28.69;98434.19;6249741;27;96683;-60
2023/03/22 12:32:35;;;;;;;;;10.50;9.50;;;;;27.14;28.23;98434.38;6267291;27;96426;-59
2023/03/22 12:35:44;;;;;;;;;9.20;9.00;;;;;27.05;27.51;98441.97;6202466;28;96406;-60
2023/03/22 12:39:01;;;;;;;;;8.60;8.00;;;;;26.89;27.52;98432.66;6265377;27;96478;-59
2023/03/22 12:42:13;;;;;;;;;9.00;8.00;;;;;26.70;27.01;98422.06;6277434;27;96524;-59
2023/03/22 12:45:21;;;;;;;;;8.40;8.00;;;;;26.48;27.29;98416.91;6310792;27;96881;-60
2023/03/22 12:48:35;;;;;;;;;8.60;8.60;;;;;26.61;27.25;98424.09;6314343;27;96491;-60
2023/03/22 12:51:42;;;;;;;;;9.00;9.00;;;;;26.72;26.94;98411.50;6314334;27;96321;-60
2023/03/22 12:54:49;;;;;;;;;7.00;6.60;;;;;26.61;27.08;98413.03;6311251;27;96676;-59
2023/03/22 12:57:54;;;;;;;;;7.50;6.50;;;;;26.59;26.78;98404.25;6312885;27;96637;-59
2023/03/22 13:01:06;;;;;;;;;6.50;6.00;;;;;26.55;27.28;98411.63;6312856;27;96834;-60
2023/03/22 13:04:30;;;;;;;;;7.67;7.00;;;;;26.39;26.98;98416.94;6313162;27;96578;-60
2023/03/22 13:07:50;;;;;;;;;7.00;7.00;;;;;26.44;27.20;98413.19;6312723;27;96341;-59
2023/03/22 13:11:05;;;;;;;;;6.60;6.00;;;;;26.30;26.94;98413.44;6299367;27;96452;-60
2023/03/22 13:14:14;;;;;;;;;6.80;5.40;;;;;26.11;26.97;98404.75;6299603;27;96630;-59
2023/03/22 13:17:35;;;;;;;;;8.00;7.00;;;;;26.06;27.38;98405.78;6316515;27;96429;-63
2023/03/22 13:20:39;;;;;;;;;8.00;8.00;;;;;25.75;27.19;98405.31;6319111;27;97151;-63
2023/03/22 13:23:56;;;;;;;;;8.67;7.00;;;;;25.38;27.46;98391.16;6310016;27;96725;-63
2023/03/22 13:27:01;;;;;;;;;9.00;9.00;;;;;25.34;27.88;98389.38;6311472;27;96377;-63
2023/03/22 13:30:14;;;;;;;;;7.50;7.00;;;;;25.24;28.59;98384.22;6311920;27;97198;-63
2023/03/22 13:33:25;;;;;;;;;8.20;7.80;;;;;25.16;28.52;98390.59;6312009;27;97716;-63
2023/03/22 13:36:30;;;;;;;;;7.00;7.00;;;;;25.20;28.46;98386.84;6316763;27;96265;-63
2023/03/22 13:39:38;;;;;;;;;9.00;8.00;;;;;25.39;27.88;98380.91;6308178;27;96444;-63
2023/03/22 13:42:42;;;;;;;;;8.00;8.00;;;;;25.51;28.26;98380.22;6313579;27;96300;-63
2023/03/22 13:46:11;;;;;;;;;10.00;9.40;;;;;25.66;28.33;98380.50;6296915;27;96651;-63
2023/03/22 13:49:46;;;;;;;;;8.00;7.00;;;;;25.91;27.87;98370.44;6316730;27;96403;-63
2023/03/22 13:52:57;;;;;;;;;8.60;8.40;;;;;26.33;27.74;98362.22;6265869;27;98200;-63
2023/03/22 13:56:04;;;;;;;;;8.60;8.00;;;;;26.42;26.71;98358.25;6311274;27;97067;-63
2023/03/22 13:59:12;;;;;;;;;9.00;7.00;;;;;26.52;26.80;98355.06;6317571;27;96755;-63
2023/03/22 14:02:21;;;;;;;;;7.40;7.40;;;;;26.42;26.83;98344.44;6302791;27;96328;-63
2023/03/22 14:05:30;;;;;;;;;7.00;6.20;;;;;26.32;26.73;98355.06;6332972;27;97432;-63
2023/03/22 14:08:36;;;;;;;;;5.00;5.00;;;;;26.18;26.54;98344.28;6314468;27;96558;-63
2023/03/22 14:11:45;;;;;;;;;6.60;6.40;;;;;26.37;26.96;98341.88;6297903;27;98244;-63
2023/03/22 14:14:55;;;;;;;;;7.00;6.20;;;;;26.36;26.81;98342.19;6317991;27;96385;-63
2023/03/22 14:18:04;;;;;;;;;5.40;5.40;;;;;25.97;26.75;98327.69;6318027;27;96719;-64
2023/03/22 14:21:12;;;;;;;;;7.00;7.00;;;;;25.65;27.26;98339.44;6316294;27;96644;-63
2023/03/22 14:24:18;;;;;;;;;6.00;5.50;;;;;25.44;27.73;98329.13;6304389;27;96313;-63
2023/03/22 14:27:20;;;;;;;;;6.00;5.20;;;;;25.51;28.38;98338.84;6313597;27;96177;-65
2023/03/22 14:30:36;;;;;;;;;6.00;5.40;;;;;25.72;28.41;98328.66;6300756;27;96386;-65
2023/03/22 14:33:42;;;;;;;;;4.00;4.00;;;;;25.74;26.61;98326.38;6311699;27;96232;-64